sensor_id;sensor_type;location;lat;lon;timestamp;P1;durP1;ratioP1;P2;durP2;ratioP2
76138;SDS011;65138;50.946;7.074;2022-12-29T00:02:14;0.68;;;0.63;;
76138;SDS011;65138;50.946;7.074;2022-12-29T00:04:40;0.70;;;0.63;;
76138;SDS011;65138;50.946;7.074;2022-12-29T00:07:06;0.70;;;0.70;;
76138;SDS011;65138;50.946;7.074;2022-12-29T00:09:33;0.73;;;0.60;;
76138;SDS011;65138;50.946;7.074;2022-12-29T00:11:59;0.60;;;0.43;;
76138;SDS011;65138;50.946;7.074;2022-12-29T00:14:26;0.57;;;0.17;;
76138;SDS011;65138;50.946;7.074;2022-12-29T00:17:11;0.63;;;0.63;;
76138;SDS011;65138;50.946;7.074;2022-12-29T00:19:36;0.70;;;0.50;;
76138;SDS011;65138;50.946;7.074;2022-12-29T00:22:21;0.80;;;0.52;;
76138;SDS011;65138;50.946;7.074;2022-12-29T00:25:07;0.70;;;0.45;;
76138;SDS011;65138;50.946;7.074;2022-12-29T00:27:52;0.85;;;0.82;;
76138;SDS011;65138;50.946;7.074;2022-12-29T00:30:36;0.63;;;0.52;;
76138;SDS011;65138;50.946;7.074;2022-12-29T00:33:28;0.43;;;0.43;;
76138;SDS011;65138;50.946;7.074;2022-12-29T00:38:47;0.65;;;0.55;;
76138;SDS011;65138;50.946;7.074;2022-12-29T00:41:39;0.65;;;0.52;;
76138;SDS011;65138;50.946;7.074;2022-12-29T00:44:23;0.55;;;0.30;;
76138;SDS011;65138;50.946;7.074;2022-12-29T00:46:49;0.47;;;0.40;;
76138;SDS011;65138;50.946;7.074;2022-12-29T00:49:14;0.60;;;0.47;;
76138;SDS011;65138;50.946;7.074;2022-12-29T00:52:02;0.45;;;0.43;;
76138;SDS011;65138;50.946;7.074;2022-12-29T00:54:31;0.57;;;0.43;;
76138;SDS011;65138;50.946;7.074;2022-12-29T00:56:58;0.43;;;0.40;;
76138;SDS011;65138;50.946;7.074;2022-12-29T00:59:24;0.70;;;0.70;;
76138;SDS011;65138;50.946;7.074;2022-12-29T01:01:50;0.70;;;0.50;;
76138;SDS011;65138;50.946;7.074;2022-12-29T01:04:18;0.40;;;0.05;;
76138;SDS011;65138;50.946;7.074;2022-12-29T01:06:48;0.60;;;0.60;;
76138;SDS011;65138;50.946;7.074;2022-12-29T01:09:14;0.47;;;0.47;;
76138;SDS011;65138;50.946;7.074;2022-12-29T01:12:02;0.50;;;0.50;;
76138;SDS011;65138;50.946;7.074;2022-12-29T01:14:29;0.40;;;0.10;;
76138;SDS011;65138;50.946;7.074;2022-12-29T01:16:56;0.50;;;0.30;;
76138;SDS011;65138;50.946;7.074;2022-12-29T01:19:22;0.40;;;0.40;;
76138;SDS011;65138;50.946;7.074;2022-12-29T01:21:48;0.40;;;0.35;;
76138;SDS011;65138;50.946;7.074;2022-12-29T01:24:14;0.40;;;0.40;;
76138;SDS011;65138;50.946;7.074;2022-12-29T01:26:41;0.63;;;0.63;;
76138;SDS011;65138;50.946;7.074;2022-12-29T01:29:07;0.47;;;0.47;;
76138;SDS011;65138;50.946;7.074;2022-12-29T01:31:33;0.40;;;0.38;;
76138;SDS011;65138;50.946;7.074;2022-12-29T01:33:58;0.57;;;0.50;;
76138;SDS011;65138;50.946;7.074;2022-12-29T01:36:24;0.50;;;0.38;;
76138;SDS011;65138;50.946;7.074;2022-12-29T01:38:50;0.93;;;0.50;;
76138;SDS011;65138;50.946;7.074;2022-12-29T01:41:16;0.60;;;0.50;;
76138;SDS011;65138;50.946;7.074;2022-12-29T01:51:34;0.45;;;0.43;;
76138;SDS011;65138;50.946;7.074;2022-12-29T01:54:03;0.77;;;0.55;;
76138;SDS011;65138;50.946;7.074;2022-12-29T01:56:33;0.40;;;0.40;;
76138;SDS011;65138;50.946;7.074;2022-12-29T01:59:01;0.40;;;0.40;;
76138;SDS011;65138;50.946;7.074;2022-12-29T02:01:33;0.55;;;0.50;;
76138;SDS011;65138;50.946;7.074;2022-12-29T02:03:59;0.43;;;0.43;;
76138;SDS011;65138;50.946;7.074;2022-12-29T02:06:28;0.40;;;0.40;;
76138;SDS011;65138;50.946;7.074;2022-12-29T02:08:57;0.70;;;0.40;;
76138;SDS011;65138;50.946;7.074;2022-12-29T02:11:24;0.50;;;0.50;;
76138;SDS011;65138;50.946;7.074;2022-12-29T02:13:52;0.38;;;0.35;;
76138;SDS011;65138;50.946;7.074;2022-12-29T02:16:24;0.60;;;0.60;;
76138;SDS011;65138;50.946;7.074;2022-12-29T02:19:03;0.57;;;0.30;;
76138;SDS011;65138;50.946;7.074;2022-12-29T02:27:36;0.65;;;0.38;;
76138;SDS011;65138;50.946;7.074;2022-12-29T02:30:28;0.55;;;0.40;;
76138;SDS011;65138;50.946;7.074;2022-12-29T02:33:21;0.40;;;0.40;;
76138;SDS011;65138;50.946;7.074;2022-12-29T02:36:21;1.05;;;0.43;;
76138;SDS011;65138;50.946;7.074;2022-12-29T02:39:14;0.47;;;0.47;;
76138;SDS011;65138;50.946;7.074;2022-12-29T02:45:04;0.38;;;0.38;;
76138;SDS011;65138;50.946;7.074;2022-12-29T02:53:01;0.40;;;0.40;;
76138;SDS011;65138;50.946;7.074;2022-12-29T02:55:33;0.38;;;0.13;;
76138;SDS011;65138;50.946;7.074;2022-12-29T02:58:19;0.70;;;0.70;;
76138;SDS011;65138;50.946;7.074;2022-12-29T03:07:34;0.52;;;0.38;;
76138;SDS011;65138;50.946;7.074;2022-12-29T03:09:43;0.30;;;0.30;;
76138;SDS011;65138;50.946;7.074;2022-12-29T03:15:44;0.63;;;0.40;;
76138;SDS011;65138;50.946;7.074;2022-12-29T03:24:29;0.38;;;0.38;;
76138;SDS011;65138;50.946;7.074;2022-12-29T03:26:59;0.60;;;0.40;;
76138;SDS011;65138;50.946;7.074;2022-12-29T03:29:31;0.50;;;0.40;;
76138;SDS011;65138;50.946;7.074;2022-12-29T03:32:01;0.60;;;0.32;;
76138;SDS011;65138;50.946;7.074;2022-12-29T03:34:28;0.65;;;0.65;;
76138;SDS011;65138;50.946;7.074;2022-12-29T03:37:00;0.43;;;0.43;;
76138;SDS011;65138;50.946;7.074;2022-12-29T03:39:31;0.40;;;0.35;;
76138;SDS011;65138;50.946;7.074;2022-12-29T03:42:00;0.35;;;0.10;;
76138;SDS011;65138;50.946;7.074;2022-12-29T03:44:36;0.40;;;0.30;;
76138;SDS011;65138;50.946;7.074;2022-12-29T03:47:06;0.68;;;0.60;;
76138;SDS011;65138;50.946;7.074;2022-12-29T03:49:35;0.43;;;0.43;;
76138;SDS011;65138;50.946;7.074;2022-12-29T03:52:02;0.55;;;0.55;;
76138;SDS011;65138;50.946;7.074;2022-12-29T03:54:29;0.38;;;0.38;;
76138;SDS011;65138;50.946;7.074;2022-12-29T03:56:56;0.30;;;0.30;;
76138;SDS011;65138;50.946;7.074;2022-12-29T03:59:32;0.50;;;0.25;;
76138;SDS011;65138;50.946;7.074;2022-12-29T04:01:59;0.40;;;0.40;;
76138;SDS011;65138;50.946;7.074;2022-12-29T04:04:26;0.50;;;0.45;;
76138;SDS011;65138;50.946;7.074;2022-12-29T04:06:52;0.55;;;0.40;;
76138;SDS011;65138;50.946;7.074;2022-12-29T04:09:18;0.60;;;0.40;;
76138;SDS011;65138;50.946;7.074;2022-12-29T04:11:46;0.50;;;0.20;;
76138;SDS011;65138;50.946;7.074;2022-12-29T04:14:12;0.30;;;0.30;;
76138;SDS011;65138;50.946;7.074;2022-12-29T04:16:37;0.35;;;0.30;;
76138;SDS011;65138;50.946;7.074;2022-12-29T04:19:05;0.47;;;0.47;;
76138;SDS011;65138;50.946;7.074;2022-12-29T04:21:32;0.43;;;0.43;;
76138;SDS011;65138;50.946;7.074;2022-12-29T04:23:59;0.35;;;0.35;;
76138;SDS011;65138;50.946;7.074;2022-12-29T04:26:25;0.32;;;0.30;;
76138;SDS011;65138;50.946;7.074;2022-12-29T04:29:17;0.32;;;0.32;;
76138;SDS011;65138;50.946;7.074;2022-12-29T04:32:02;0.40;;;0.30;;
76138;SDS011;65138;50.946;7.074;2022-12-29T04:34:29;0.40;;;0.30;;
76138;SDS011;65138;50.946;7.074;2022-12-29T04:36:55;0.43;;;0.43;;
76138;SDS011;65138;50.946;7.074;2022-12-29T04:39:21;0.40;;;0.17;;
76138;SDS011;65138;50.946;7.074;2022-12-29T04:41:47;0.40;;;0.20;;
76138;SDS011;65138;50.946;7.074;2022-12-29T04:44:16;0.35;;;0.35;;
76138;SDS011;65138;50.946;7.074;2022-12-29T04:46:56;1.02;;;0.30;;
76138;SDS011;65138;50.946;7.074;2022-12-29T04:49:38;0.30;;;0.30;;
76138;SDS011;65138;50.946;7.074;2022-12-29T04:52:33;0.25;;;0.25;;
76138;SDS011;65138;50.946;7.074;2022-12-29T04:54:59;0.30;;;0.30;;
76138;SDS011;65138;50.946;7.074;2022-12-29T04:57:25;0.32;;;0.32;;
76138;SDS011;65138;50.946;7.074;2022-12-29T04:59:54;0.40;;;0.40;;
76138;SDS011;65138;50.946;7.074;2022-12-29T05:02:21;0.28;;;0.28;;
76138;SDS011;65138;50.946;7.074;2022-12-29T05:04:49;0.20;;;0.20;;
76138;SDS011;65138;50.946;7.074;2022-12-29T05:07:15;0.40;;;0.28;;
76138;SDS011;65138;50.946;7.074;2022-12-29T05:09:42;0.20;;;0.20;;
76138;SDS011;65138;50.946;7.074;2022-12-29T05:12:09;0.50;;;0.50;;
76138;SDS011;65138;50.946;7.074;2022-12-29T05:14:39;0.20;;;0.20;;
76138;SDS011;65138;50.946;7.074;2022-12-29T05:17:06;0.38;;;0.35;;
76138;SDS011;65138;50.946;7.074;2022-12-29T05:19:32;0.40;;;0.40;;
76138;SDS011;65138;50.946;7.074;2022-12-29T05:21:58;0.60;;;0.20;;
76138;SDS011;65138;50.946;7.074;2022-12-29T05:24:24;0.25;;;0.22;;
76138;SDS011;65138;50.946;7.074;2022-12-29T05:26:52;0.50;;;0.30;;
76138;SDS011;65138;50.946;7.074;2022-12-29T05:29:31;0.20;;;0.20;;
76138;SDS011;65138;50.946;7.074;2022-12-29T05:31:57;0.50;;;0.40;;
76138;SDS011;65138;50.946;7.074;2022-12-29T05:34:23;0.32;;;0.10;;
76138;SDS011;65138;50.946;7.074;2022-12-29T05:36:48;0.60;;;0.45;;
76138;SDS011;65138;50.946;7.074;2022-12-29T05:39:14;0.47;;;0.17;;
76138;SDS011;65138;50.946;7.074;2022-12-29T05:41:42;0.50;;;0.50;;
76138;SDS011;65138;50.946;7.074;2022-12-29T05:44:43;1.95;;;0.45;;
76138;SDS011;65138;50.946;7.074;2022-12-29T05:47:35;0.40;;;0.25;;
76138;SDS011;65138;50.946;7.074;2022-12-29T05:50:19;0.13;;;0.00;;
76138;SDS011;65138;50.946;7.074;2022-12-29T05:53:03;0.25;;;0.20;;
76138;SDS011;65138;50.946;7.074;2022-12-29T05:55:30;0.93;;;0.30;;
76138;SDS011;65138;50.946;7.074;2022-12-29T05:57:56;0.30;;;0.20;;
76138;SDS011;65138;50.946;7.074;2022-12-29T06:00:22;0.40;;;0.30;;
76138;SDS011;65138;50.946;7.074;2022-12-29T06:02:47;0.43;;;0.30;;
76138;SDS011;65138;50.946;7.074;2022-12-29T06:05:15;0.20;;;0.20;;
76138;SDS011;65138;50.946;7.074;2022-12-29T06:07:41;0.30;;;0.30;;
76138;SDS011;65138;50.946;7.074;2022-12-29T06:10:06;0.32;;;0.20;;
76138;SDS011;65138;50.946;7.074;2022-12-29T06:12:41;0.40;;;0.40;;
76138;SDS011;65138;50.946;7.074;2022-12-29T06:15:07;0.40;;;0.35;;
76138;SDS011;65138;50.946;7.074;2022-12-29T06:17:33;0.30;;;0.20;;
76138;SDS011;65138;50.946;7.074;2022-12-29T06:19:59;0.40;;;0.32;;
76138;SDS011;65138;50.946;7.074;2022-12-29T06:22:25;0.55;;;0.32;;
76138;SDS011;65138;50.946;7.074;2022-12-29T06:24:52;0.52;;;0.52;;
76138;SDS011;65138;50.946;7.074;2022-12-29T06:27:17;0.30;;;0.30;;
76138;SDS011;65138;50.946;7.074;2022-12-29T06:29:43;0.43;;;0.43;;
76138;SDS011;65138;50.946;7.074;2022-12-29T06:32:09;0.50;;;0.47;;
76138;SDS011;65138;50.946;7.074;2022-12-29T06:34:37;0.28;;;0.00;;
76138;SDS011;65138;50.946;7.074;2022-12-29T06:37:03;0.52;;;0.30;;
76138;SDS011;65138;50.946;7.074;2022-12-29T06:39:29;0.40;;;0.40;;
76138;SDS011;65138;50.946;7.074;2022-12-29T06:42:04;0.38;;;0.38;;
76138;SDS011;65138;50.946;7.074;2022-12-29T06:44:48;0.60;;;0.60;;
76138;SDS011;65138;50.946;7.074;2022-12-29T06:47:14;0.25;;;0.25;;
76138;SDS011;65138;50.946;7.074;2022-12-29T06:49:39;0.22;;;0.22;;
76138;SDS011;65138;50.946;7.074;2022-12-29T06:52:05;0.43;;;0.22;;
76138;SDS011;65138;50.946;7.074;2022-12-29T06:54:31;0.20;;;0.20;;
76138;SDS011;65138;50.946;7.074;2022-12-29T06:56:57;0.20;;;0.20;;
76138;SDS011;65138;50.946;7.074;2022-12-29T06:59:23;0.35;;;0.35;;
76138;SDS011;65138;50.946;7.074;2022-12-29T07:01:49;0.50;;;0.50;;
76138;SDS011;65138;50.946;7.074;2022-12-29T07:04:15;0.30;;;0.30;;
76138;SDS011;65138;50.946;7.074;2022-12-29T07:06:41;0.82;;;0.77;;
76138;SDS011;65138;50.946;7.074;2022-12-29T07:09:08;0.22;;;0.22;;
76138;SDS011;65138;50.946;7.074;2022-12-29T07:11:34;0.30;;;0.30;;
76138;SDS011;65138;50.946;7.074;2022-12-29T07:14:00;0.52;;;0.52;;
76138;SDS011;65138;50.946;7.074;2022-12-29T07:16:27;0.40;;;0.40;;
76138;SDS011;65138;50.946;7.074;2022-12-29T07:18:54;0.47;;;0.43;;
76138;SDS011;65138;50.946;7.074;2022-12-29T07:21:20;0.75;;;0.75;;
76138;SDS011;65138;50.946;7.074;2022-12-29T07:23:46;0.50;;;0.32;;
76138;SDS011;65138;50.946;7.074;2022-12-29T07:26:13;0.25;;;0.25;;
76138;SDS011;65138;50.946;7.074;2022-12-29T07:28:40;0.40;;;0.35;;
76138;SDS011;65138;50.946;7.074;2022-12-29T07:31:07;0.30;;;0.30;;
76138;SDS011;65138;50.946;7.074;2022-12-29T07:33:43;0.30;;;0.20;;
76138;SDS011;65138;50.946;7.074;2022-12-29T07:36:10;0.40;;;0.40;;
76138;SDS011;65138;50.946;7.074;2022-12-29T07:38:36;0.32;;;0.22;;
76138;SDS011;65138;50.946;7.074;2022-12-29T07:41:01;0.45;;;0.20;;
76138;SDS011;65138;50.946;7.074;2022-12-29T07:43:27;0.40;;;0.40;;
76138;SDS011;65138;50.946;7.074;2022-12-29T07:46:11;0.20;;;0.20;;
76138;SDS011;65138;50.946;7.074;2022-12-29T07:48:37;0.30;;;0.20;;
76138;SDS011;65138;50.946;7.074;2022-12-29T07:51:02;1.15;;;0.30;;
76138;SDS011;65138;50.946;7.074;2022-12-29T07:53:28;0.95;;;0.35;;
76138;SDS011;65138;50.946;7.074;2022-12-29T07:55:57;0.30;;;0.22;;
76138;SDS011;65138;50.946;7.074;2022-12-29T07:58:23;0.35;;;0.35;;
76138;SDS011;65138;50.946;7.074;2022-12-29T08:00:53;0.35;;;0.35;;
76138;SDS011;65138;50.946;7.074;2022-12-29T08:03:22;0.30;;;0.25;;
76138;SDS011;65138;50.946;7.074;2022-12-29T08:05:48;0.40;;;0.30;;
76138;SDS011;65138;50.946;7.074;2022-12-29T08:08:14;0.73;;;0.40;;
76138;SDS011;65138;50.946;7.074;2022-12-29T08:10:40;0.25;;;0.25;;
76138;SDS011;65138;50.946;7.074;2022-12-29T08:13:05;0.00;;;0.00;;
76138;SDS011;65138;50.946;7.074;2022-12-29T08:15:31;0.40;;;0.35;;
76138;SDS011;65138;50.946;7.074;2022-12-29T08:17:56;0.52;;;0.30;;
76138;SDS011;65138;50.946;7.074;2022-12-29T08:20:22;0.93;;;0.40;;
76138;SDS011;65138;50.946;7.074;2022-12-29T08:22:48;0.43;;;0.30;;
76138;SDS011;65138;50.946;7.074;2022-12-29T08:25:13;0.88;;;0.40;;
76138;SDS011;65138;50.946;7.074;2022-12-29T08:27:39;1.30;;;0.30;;
76138;SDS011;65138;50.946;7.074;2022-12-29T08:30:05;0.63;;;0.32;;
76138;SDS011;65138;50.946;7.074;2022-12-29T08:32:31;0.30;;;0.20;;
76138;SDS011;65138;50.946;7.074;2022-12-29T08:34:57;1.65;;;0.40;;
76138;SDS011;65138;50.946;7.074;2022-12-29T08:37:23;0.95;;;0.40;;
76138;SDS011;65138;50.946;7.074;2022-12-29T08:39:49;0.45;;;0.15;;
76138;SDS011;65138;50.946;7.074;2022-12-29T08:42:15;0.30;;;0.30;;
76138;SDS011;65138;50.946;7.074;2022-12-29T08:44:40;0.60;;;0.40;;
76138;SDS011;65138;50.946;7.074;2022-12-29T08:47:06;0.30;;;0.30;;
76138;SDS011;65138;50.946;7.074;2022-12-29T08:49:33;0.82;;;0.40;;
76138;SDS011;65138;50.946;7.074;2022-12-29T08:51:58;0.80;;;0.43;;
76138;SDS011;65138;50.946;7.074;2022-12-29T08:54:24;0.75;;;0.73;;
76138;SDS011;65138;50.946;7.074;2022-12-29T08:56:50;1.13;;;0.45;;
76138;SDS011;65138;50.946;7.074;2022-12-29T08:59:16;0.50;;;0.45;;
76138;SDS011;65138;50.946;7.074;2022-12-29T09:01:45;0.63;;;0.28;;
76138;SDS011;65138;50.946;7.074;2022-12-29T09:04:11;1.17;;;0.40;;
76138;SDS011;65138;50.946;7.074;2022-12-29T09:06:37;1.02;;;0.55;;
76138;SDS011;65138;50.946;7.074;2022-12-29T09:09:03;1.17;;;0.57;;
76138;SDS011;65138;50.946;7.074;2022-12-29T09:11:28;0.70;;;0.43;;
76138;SDS011;65138;50.946;7.074;2022-12-29T09:13:54;1.90;;;0.57;;
76138;SDS011;65138;50.946;7.074;2022-12-29T09:16:21;0.70;;;0.50;;
76138;SDS011;65138;50.946;7.074;2022-12-29T09:18:47;0.50;;;0.50;;
76138;SDS011;65138;50.946;7.074;2022-12-29T09:21:13;0.32;;;0.22;;
76138;SDS011;65138;50.946;7.074;2022-12-29T09:23:39;0.90;;;0.47;;
76138;SDS011;65138;50.946;7.074;2022-12-29T09:26:05;0.95;;;0.32;;
76138;SDS011;65138;50.946;7.074;2022-12-29T09:28:32;0.50;;;0.30;;
76138;SDS011;65138;50.946;7.074;2022-12-29T09:30:59;1.50;;;1.05;;
76138;SDS011;65138;50.946;7.074;2022-12-29T09:33:25;0.90;;;0.60;;
76138;SDS011;65138;50.946;7.074;2022-12-29T09:36:00;1.42;;;0.35;;
76138;SDS011;65138;50.946;7.074;2022-12-29T09:38:26;1.30;;;0.43;;
76138;SDS011;65138;50.946;7.074;2022-12-29T09:40:57;0.93;;;0.75;;
76138;SDS011;65138;50.946;7.074;2022-12-29T09:48:44;4.05;;;1.27;;
76138;SDS011;65138;50.946;7.074;2022-12-29T09:51:15;4.07;;;1.63;;
76138;SDS011;65138;50.946;7.074;2022-12-29T09:53:50;6.80;;;2.17;;
76138;SDS011;65138;50.946;7.074;2022-12-29T09:56:21;9.15;;;3.05;;
76138;SDS011;65138;50.946;7.074;2022-12-29T10:01:27;11.20;;;4.55;;
76138;SDS011;65138;50.946;7.074;2022-12-29T10:03:58;10.82;;;3.75;;
76138;SDS011;65138;50.946;7.074;2022-12-29T10:09:12;12.65;;;4.28;;
76138;SDS011;65138;50.946;7.074;2022-12-29T10:14:33;10.30;;;4.05;;
76138;SDS011;65138;50.946;7.074;2022-12-29T10:20:18;11.02;;;3.95;;
76138;SDS011;65138;50.946;7.074;2022-12-29T10:25:55;10.05;;;3.80;;
76138;SDS011;65138;50.946;7.074;2022-12-29T10:28:23;10.68;;;3.47;;
76138;SDS011;65138;50.946;7.074;2022-12-29T10:30:55;8.43;;;2.55;;
76138;SDS011;65138;50.946;7.074;2022-12-29T10:33:27;8.75;;;2.95;;
76138;SDS011;65138;50.946;7.074;2022-12-29T10:35:59;9.55;;;2.65;;
76138;SDS011;65138;50.946;7.074;2022-12-29T10:38:45;10.38;;;3.17;;
76138;SDS011;65138;50.946;7.074;2022-12-29T10:41:32;8.25;;;2.90;;
76138;SDS011;65138;50.946;7.074;2022-12-29T10:44:03;11.35;;;2.80;;
76138;SDS011;65138;50.946;7.074;2022-12-29T10:46:30;6.68;;;2.10;;
76138;SDS011;65138;50.946;7.074;2022-12-29T10:49:01;7.28;;;3.03;;
76138;SDS011;65138;50.946;7.074;2022-12-29T10:51:30;6.53;;;2.20;;
76138;SDS011;65138;50.946;7.074;2022-12-29T10:54:02;5.88;;;2.38;;
76138;SDS011;65138;50.946;7.074;2022-12-29T10:56:36;4.72;;;2.00;;
76138;SDS011;65138;50.946;7.074;2022-12-29T10:59:24;6.80;;;2.63;;
76138;SDS011;65138;50.946;7.074;2022-12-29T11:07:11;3.30;;;1.23;;
76138;SDS011;65138;50.946;7.074;2022-12-29T11:09:38;3.35;;;1.30;;
76138;SDS011;65138;50.946;7.074;2022-12-29T11:12:23;5.15;;;1.52;;
76138;SDS011;65138;50.946;7.074;2022-12-29T11:15:01;4.90;;;1.67;;
76138;SDS011;65138;50.946;7.074;2022-12-29T11:17:53;3.95;;;1.10;;
76138;SDS011;65138;50.946;7.074;2022-12-29T11:23:04;5.47;;;1.77;;
76138;SDS011;65138;50.946;7.074;2022-12-29T11:26:08;3.78;;;1.33;;
76138;SDS011;65138;50.946;7.074;2022-12-29T11:28:43;3.15;;;1.23;;
76138;SDS011;65138;50.946;7.074;2022-12-29T11:31:12;4.05;;;1.50;;
76138;SDS011;65138;50.946;7.074;2022-12-29T11:36:08;3.20;;;1.33;;
76138;SDS011;65138;50.946;7.074;2022-12-29T11:38:48;4.53;;;0.60;;
76138;SDS011;65138;50.946;7.074;2022-12-29T11:41:23;5.30;;;1.27;;
76138;SDS011;65138;50.946;7.074;2022-12-29T11:43:51;4.20;;;1.67;;
76138;SDS011;65138;50.946;7.074;2022-12-29T11:46:22;3.75;;;1.02;;
76138;SDS011;65138;50.946;7.074;2022-12-29T11:48:53;2.88;;;1.33;;
76138;SDS011;65138;50.946;7.074;2022-12-29T11:51:25;3.78;;;1.20;;
76138;SDS011;65138;50.946;7.074;2022-12-29T11:53:56;3.70;;;1.08;;
76138;SDS011;65138;50.946;7.074;2022-12-29T11:56:37;4.38;;;1.23;;
76138;SDS011;65138;50.946;7.074;2022-12-29T12:02:00;4.40;;;1.13;;
76138;SDS011;65138;50.946;7.074;2022-12-29T12:04:34;2.67;;;0.95;;
76138;SDS011;65138;50.946;7.074;2022-12-29T12:07:03;4.30;;;0.98;;
76138;SDS011;65138;50.946;7.074;2022-12-29T12:09:36;2.72;;;0.95;;
76138;SDS011;65138;50.946;7.074;2022-12-29T12:12:11;3.78;;;1.00;;
76138;SDS011;65138;50.946;7.074;2022-12-29T12:14:50;4.75;;;1.55;;
76138;SDS011;65138;50.946;7.074;2022-12-29T12:17:55;4.13;;;1.42;;
76138;SDS011;65138;50.946;7.074;2022-12-29T12:20:44;4.28;;;1.50;;
76138;SDS011;65138;50.946;7.074;2022-12-29T12:23:28;2.88;;;0.93;;
76138;SDS011;65138;50.946;7.074;2022-12-29T12:26:07;5.70;;;1.48;;
76138;SDS011;65138;50.946;7.074;2022-12-29T12:28:48;3.63;;;0.88;;
76138;SDS011;65138;50.946;7.074;2022-12-29T12:34:35;4.45;;;1.20;;
76138;SDS011;65138;50.946;7.074;2022-12-29T12:39:35;4.32;;;1.38;;
76138;SDS011;65138;50.946;7.074;2022-12-29T12:42:21;4.13;;;1.40;;
76138;SDS011;65138;50.946;7.074;2022-12-29T12:45:24;3.80;;;1.23;;
76138;SDS011;65138;50.946;7.074;2022-12-29T12:48:24;3.38;;;1.40;;
76138;SDS011;65138;50.946;7.074;2022-12-29T12:56:31;3.35;;;0.93;;
76138;SDS011;65138;50.946;7.074;2022-12-29T13:01:59;5.15;;;0.82;;
76138;SDS011;65138;50.946;7.074;2022-12-29T13:10:50;3.75;;;0.95;;
76138;SDS011;65138;50.946;7.074;2022-12-29T13:19:23;2.97;;;1.20;;
76138;SDS011;65138;50.946;7.074;2022-12-29T13:24:50;2.55;;;1.13;;
76138;SDS011;65138;50.946;7.074;2022-12-29T13:38:36;1.83;;;0.77;;
76138;SDS011;65138;50.946;7.074;2022-12-29T13:41:10;3.17;;;1.10;;
76138;SDS011;65138;50.946;7.074;2022-12-29T13:43:58;2.83;;;0.90;;
76138;SDS011;65138;50.946;7.074;2022-12-29T13:46:28;2.30;;;0.30;;
76138;SDS011;65138;50.946;7.074;2022-12-29T13:48:59;3.67;;;0.70;;
76138;SDS011;65138;50.946;7.074;2022-12-29T13:51:31;3.58;;;0.80;;
76138;SDS011;65138;50.946;7.074;2022-12-29T13:56:52;3.88;;;0.50;;
76138;SDS011;65138;50.946;7.074;2022-12-29T14:02:36;2.25;;;0.82;;
76138;SDS011;65138;50.946;7.074;2022-12-29T14:07:47;5.47;;;0.70;;
76138;SDS011;65138;50.946;7.074;2022-12-29T14:10:45;2.90;;;0.55;;
76138;SDS011;65138;50.946;7.074;2022-12-29T14:13:14;5.35;;;1.00;;
76138;SDS011;65138;50.946;7.074;2022-12-29T14:15:57;3.15;;;0.98;;
76138;SDS011;65138;50.946;7.074;2022-12-29T14:18:28;2.80;;;0.52;;
76138;SDS011;65138;50.946;7.074;2022-12-29T14:21:01;4.47;;;0.82;;
76138;SDS011;65138;50.946;7.074;2022-12-29T14:23:36;9.88;;;0.98;;
76138;SDS011;65138;50.946;7.074;2022-12-29T14:28:44;5.07;;;1.13;;
76138;SDS011;65138;50.946;7.074;2022-12-29T14:33:41;9.57;;;1.00;;
76138;SDS011;65138;50.946;7.074;2022-12-29T14:36:34;4.03;;;0.50;;
76138;SDS011;65138;50.946;7.074;2022-12-29T14:39:04;2.28;;;1.30;;
76138;SDS011;65138;50.946;7.074;2022-12-29T14:44:34;2.40;;;0.73;;
76138;SDS011;65138;50.946;7.074;2022-12-29T14:47:35;3.08;;;0.75;;
76138;SDS011;65138;50.946;7.074;2022-12-29T14:55:40;3.38;;;0.93;;
76138;SDS011;65138;50.946;7.074;2022-12-29T14:58:16;1.67;;;0.65;;
76138;SDS011;65138;50.946;7.074;2022-12-29T15:00:55;4.75;;;0.65;;
76138;SDS011;65138;50.946;7.074;2022-12-29T15:03:25;3.63;;;0.70;;
76138;SDS011;65138;50.946;7.074;2022-12-29T15:08:35;2.05;;;0.52;;
76138;SDS011;65138;50.946;7.074;2022-12-29T15:11:06;1.38;;;0.22;;
76138;SDS011;65138;50.946;7.074;2022-12-29T15:13:40;2.45;;;0.75;;
76138;SDS011;65138;50.946;7.074;2022-12-29T15:19:20;3.30;;;0.32;;
76138;SDS011;65138;50.946;7.074;2022-12-29T15:21:50;2.05;;;0.57;;
76138;SDS011;65138;50.946;7.074;2022-12-29T15:24:18;1.55;;;0.60;;
76138;SDS011;65138;50.946;7.074;2022-12-29T15:26:45;3.47;;;0.60;;
76138;SDS011;65138;50.946;7.074;2022-12-29T15:29:31;1.48;;;0.73;;
76138;SDS011;65138;50.946;7.074;2022-12-29T15:32:21;1.58;;;0.50;;
76138;SDS011;65138;50.946;7.074;2022-12-29T15:34:51;1.30;;;0.40;;
76138;SDS011;65138;50.946;7.074;2022-12-29T15:37:19;0.88;;;0.40;;
76138;SDS011;65138;50.946;7.074;2022-12-29T15:39:50;2.42;;;0.60;;
76138;SDS011;65138;50.946;7.074;2022-12-29T15:42:21;1.48;;;0.57;;
76138;SDS011;65138;50.946;7.074;2022-12-29T15:44:51;1.38;;;0.52;;
76138;SDS011;65138;50.946;7.074;2022-12-29T15:47:19;1.75;;;0.93;;
76138;SDS011;65138;50.946;7.074;2022-12-29T15:49:52;1.02;;;0.65;;
76138;SDS011;65138;50.946;7.074;2022-12-29T15:52:31;2.25;;;0.93;;
76138;SDS011;65138;50.946;7.074;2022-12-29T15:54:58;2.15;;;0.93;;
76138;SDS011;65138;50.946;7.074;2022-12-29T15:57:30;2.63;;;1.15;;
76138;SDS011;65138;50.946;7.074;2022-12-29T16:00:02;3.13;;;0.73;;
76138;SDS011;65138;50.946;7.074;2022-12-29T16:02:37;2.65;;;0.90;;
76138;SDS011;65138;50.946;7.074;2022-12-29T16:05:08;2.50;;;0.40;;
76138;SDS011;65138;50.946;7.074;2022-12-29T16:07:33;3.80;;;0.75;;
76138;SDS011;65138;50.946;7.074;2022-12-29T16:10:01;3.53;;;1.02;;
76138;SDS011;65138;50.946;7.074;2022-12-29T16:12:36;2.42;;;0.93;;
76138;SDS011;65138;50.946;7.074;2022-12-29T16:15:04;2.35;;;0.73;;
76138;SDS011;65138;50.946;7.074;2022-12-29T16:17:44;3.10;;;1.02;;
76138;SDS011;65138;50.946;7.074;2022-12-29T16:20:20;3.13;;;0.35;;
76138;SDS011;65138;50.946;7.074;2022-12-29T16:22:50;2.35;;;0.43;;
76138;SDS011;65138;50.946;7.074;2022-12-29T16:25:30;2.78;;;0.95;;
76138;SDS011;65138;50.946;7.074;2022-12-29T16:28:00;2.00;;;0.45;;
76138;SDS011;65138;50.946;7.074;2022-12-29T16:30:27;1.13;;;0.55;;
76138;SDS011;65138;50.946;7.074;2022-12-29T16:32:56;2.03;;;0.75;;
76138;SDS011;65138;50.946;7.074;2022-12-29T16:35:44;2.03;;;0.82;;
76138;SDS011;65138;50.946;7.074;2022-12-29T16:40:59;3.13;;;0.77;;
76138;SDS011;65138;50.946;7.074;2022-12-29T16:43:32;2.03;;;0.70;;
76138;SDS011;65138;50.946;7.074;2022-12-29T16:48:26;2.15;;;0.88;;
76138;SDS011;65138;50.946;7.074;2022-12-29T16:51:02;1.45;;;0.60;;
76138;SDS011;65138;50.946;7.074;2022-12-29T16:53:40;2.45;;;1.05;;
76138;SDS011;65138;50.946;7.074;2022-12-29T16:56:15;2.72;;;1.83;;
76138;SDS011;65138;50.946;7.074;2022-12-29T16:58:47;3.08;;;1.80;;
76138;SDS011;65138;50.946;7.074;2022-12-29T17:01:25;2.47;;;1.23;;
76138;SDS011;65138;50.946;7.074;2022-12-29T17:03:51;2.78;;;1.50;;
76138;SDS011;65138;50.946;7.074;2022-12-29T17:06:21;2.67;;;1.30;;
76138;SDS011;65138;50.946;7.074;2022-12-29T17:08:48;2.00;;;1.17;;
76138;SDS011;65138;50.946;7.074;2022-12-29T17:11:18;2.05;;;1.10;;
76138;SDS011;65138;50.946;7.074;2022-12-29T17:16:55;2.33;;;1.02;;
76138;SDS011;65138;50.946;7.074;2022-12-29T17:19:25;1.85;;;1.00;;
76138;SDS011;65138;50.946;7.074;2022-12-29T17:21:54;2.95;;;1.13;;
76138;SDS011;65138;50.946;7.074;2022-12-29T17:24:20;1.65;;;0.82;;
76138;SDS011;65138;50.946;7.074;2022-12-29T17:26:47;4.47;;;1.10;;
76138;SDS011;65138;50.946;7.074;2022-12-29T17:29:48;3.85;;;0.88;;
76138;SDS011;65138;50.946;7.074;2022-12-29T17:32:10;1.67;;;0.77;;
76138;SDS011;65138;50.946;7.074;2022-12-29T17:34:41;1.73;;;0.70;;
76138;SDS011;65138;50.946;7.074;2022-12-29T17:37:16;2.10;;;0.80;;
76138;SDS011;65138;50.946;7.074;2022-12-29T17:39:48;2.47;;;0.98;;
76138;SDS011;65138;50.946;7.074;2022-12-29T17:42:14;2.03;;;0.73;;
76138;SDS011;65138;50.946;7.074;2022-12-29T17:44:39;2.83;;;1.08;;
76138;SDS011;65138;50.946;7.074;2022-12-29T17:47:08;2.08;;;0.77;;